createdAt,value
2023-04-22T00:00:26.968Z,5.45
2023-04-22T00:02:56.436Z,4.88
2023-04-22T00:05:23.672Z,5.00
2023-04-22T00:07:50.662Z,4.35
2023-04-22T00:10:17.616Z,5.40
2023-04-22T00:12:44.517Z,5.43
2023-04-22T00:15:11.580Z,5.68
2023-04-22T00:17:38.682Z,5.60
2023-04-22T00:20:06.203Z,6.28
2023-04-22T00:22:33.299Z,5.32
2023-04-22T00:25:00.184Z,4.78
2023-04-22T00:27:27.129Z,5.32
2023-04-22T00:29:54.203Z,6.05
2023-04-22T00:32:22.823Z,5.15
2023-04-22T00:34:50.399Z,4.88
2023-04-22T00:37:17.379Z,5.38
2023-04-22T00:39:44.329Z,5.28
2023-04-22T00:42:13.296Z,5.45
2023-04-22T00:44:41.184Z,5.45
2023-04-22T00:47:08.882Z,5.47
2023-04-22T00:49:39.433Z,5.50
2023-04-22T00:52:06.922Z,5.50
2023-04-22T00:54:35.139Z,5.63
2023-04-22T00:57:03.074Z,5.45
2023-04-22T00:59:29.987Z,5.55
2023-04-22T01:01:56.902Z,5.35
2023-04-22T01:04:23.965Z,5.18
2023-04-22T01:06:52.527Z,5.78
2023-04-22T01:09:20.633Z,4.45
2023-04-22T01:11:48.093Z,5.15
2023-04-22T01:14:15.484Z,5.05
2023-04-22T01:16:43.633Z,5.80
2023-04-22T01:19:11.581Z,5.22
2023-04-22T01:21:39.822Z,6.65
2023-04-22T01:24:07.834Z,5.50
2023-04-22T01:26:34.782Z,4.75
2023-04-22T01:29:02.075Z,5.88
2023-04-22T01:31:30.812Z,6.20
2023-04-22T01:33:57.894Z,5.38
2023-04-22T01:36:24.790Z,5.43
2023-04-22T01:38:51.833Z,5.40
2023-04-22T01:41:18.789Z,4.72
2023-04-22T01:43:48.893Z,4.88
2023-04-22T01:46:17.216Z,4.75
2023-04-22T01:48:50.351Z,4.35
2023-04-22T01:51:18.194Z,4.90
2023-04-22T01:53:45.080Z,4.40
2023-04-22T01:56:11.955Z,4.72
2023-04-22T01:58:39.711Z,4.38
2023-04-22T02:01:07.164Z,4.97
2023-04-22T02:03:34.165Z,3.90
2023-04-22T02:06:01.307Z,4.72
2023-04-22T02:08:28.254Z,4.95
2023-04-22T02:10:55.245Z,5.18
2023-04-22T02:13:22.186Z,4.97
2023-04-22T02:15:49.025Z,4.53
2023-04-22T02:18:18.177Z,4.72
2023-04-22T02:20:45.109Z,4.30
2023-04-22T02:23:11.976Z,3.90
2023-04-22T02:25:39.021Z,5.47
2023-04-22T02:28:05.920Z,4.55
2023-04-22T02:30:32.727Z,4.38
2023-04-22T02:32:59.649Z,4.05
2023-04-22T02:35:26.550Z,4.32
2023-04-22T02:37:53.411Z,4.40
2023-04-22T02:40:20.695Z,5.03
2023-04-22T02:42:48.669Z,4.65
2023-04-22T02:45:15.804Z,5.00
2023-04-22T02:47:42.724Z,5.05
2023-04-22T02:50:10.230Z,4.78
2023-04-22T02:52:37.230Z,5.45
2023-04-22T02:55:04.413Z,5.05
2023-04-22T02:57:31.362Z,5.75
2023-04-22T02:59:58.384Z,4.50
2023-04-22T03:02:25.464Z,5.40
2023-04-22T03:04:54.459Z,5.03
2023-04-22T03:07:21.420Z,5.13
2023-04-22T03:09:48.335Z,5.70
2023-04-22T03:12:15.449Z,4.72
2023-04-22T03:14:42.235Z,5.88
2023-04-22T03:17:09.037Z,4.90
2023-04-22T03:19:36.408Z,5.55
2023-04-22T03:22:03.258Z,4.85
2023-04-22T03:24:30.124Z,4.63
2023-04-22T03:26:57.050Z,4.20
2023-04-22T03:29:24.019Z,5.25
2023-04-22T03:31:50.916Z,5.45
2023-04-22T03:34:17.897Z,5.40
2023-04-22T03:36:44.844Z,5.47
2023-04-22T03:39:11.824Z,4.72
2023-04-22T03:41:38.786Z,4.40
2023-04-22T03:44:05.776Z,4.55
2023-04-22T03:46:32.749Z,4.10
2023-04-22T03:48:59.692Z,4.38
2023-04-22T03:51:28.357Z,4.72
2023-04-22T03:53:55.341Z,4.30
2023-04-22T03:56:22.382Z,4.60
2023-04-22T03:58:49.329Z,3.90
2023-04-22T04:01:16.310Z,4.15
2023-04-22T04:03:43.284Z,4.57
2023-04-22T04:06:10.373Z,4.03
2023-04-22T04:08:37.284Z,4.70
2023-04-22T04:11:04.521Z,4.22
2023-04-22T04:13:32.598Z,4.50
2023-04-22T04:16:00.371Z,4.28
2023-04-22T04:18:29.746Z,4.70
2023-04-22T04:20:56.779Z,4.13
2023-04-22T04:23:23.597Z,4.53
2023-04-22T04:25:50.512Z,5.40
2023-04-22T04:28:17.974Z,4.55
2023-04-22T04:30:44.925Z,4.03
2023-04-22T04:33:12.418Z,4.78
2023-04-22T04:35:39.643Z,4.57
2023-04-22T04:38:06.536Z,3.55
2023-04-22T04:40:34.447Z,3.97
2023-04-22T04:43:02.720Z,4.25
2023-04-22T04:45:30.097Z,4.68
2023-04-22T04:47:57.186Z,4.35
2023-04-22T04:50:24.346Z,4.28
2023-04-22T04:52:52.764Z,3.83
2023-04-22T04:55:20.123Z,4.30
2023-04-22T04:57:47.266Z,4.38
2023-04-22T05:00:14.342Z,4.45
2023-04-22T05:02:41.696Z,4.22
2023-04-22T05:05:09.427Z,3.75
2023-04-22T05:07:36.268Z,4.47
2023-04-22T05:10:03.471Z,4.70
2023-04-22T05:12:30.438Z,4.18
2023-04-22T05:14:57.340Z,4.70
2023-04-22T05:17:24.267Z,3.97
2023-04-22T05:19:51.173Z,4.28
2023-04-22T05:22:18.484Z,4.65
2023-04-22T05:24:45.693Z,4.15
2023-04-22T05:27:12.674Z,4.70
2023-04-22T05:29:39.657Z,3.85
2023-04-22T05:32:08.309Z,3.97
2023-04-22T05:34:35.824Z,4.15
2023-04-22T05:37:03.818Z,4.65
2023-04-22T05:39:30.746Z,4.05
2023-04-22T05:41:57.668Z,4.15
2023-04-22T05:44:24.560Z,4.10
2023-04-22T05:46:51.353Z,4.60
2023-04-22T05:49:19.776Z,4.15
2023-04-22T05:51:46.788Z,4.45
2023-04-22T05:54:14.057Z,4.97
2023-04-22T05:56:41.208Z,5.10
2023-04-22T05:59:08.068Z,5.60
2023-04-22T06:01:36.324Z,4.85
2023-04-22T06:04:05.938Z,4.57
2023-04-22T06:06:34.549Z,5.22
2023-04-22T06:09:01.809Z,4.60
2023-04-22T06:11:28.989Z,5.82
2023-04-22T06:13:55.892Z,4.88
2023-04-22T06:16:23.560Z,5.80
2023-04-22T06:18:50.395Z,5.35
2023-04-22T06:21:17.389Z,5.57
2023-04-22T06:23:44.352Z,5.03
2023-04-22T06:26:11.347Z,5.28
2023-04-22T06:28:38.495Z,4.57
2023-04-22T06:31:05.464Z,5.80
2023-04-22T06:33:32.368Z,5.03
2023-04-22T06:35:59.910Z,4.82
2023-04-22T06:38:27.021Z,4.38
2023-04-22T06:40:53.798Z,5.03
2023-04-22T06:43:20.856Z,4.53
2023-04-22T06:45:47.706Z,4.63
2023-04-22T06:48:14.660Z,4.90
2023-04-22T06:50:41.576Z,5.88
2023-04-22T06:53:10.005Z,5.38
2023-04-22T06:55:37.089Z,5.72
2023-04-22T06:58:03.948Z,6.15
2023-04-22T07:00:31.069Z,6.03
2023-04-22T07:02:58.434Z,5.57
2023-04-22T07:05:25.442Z,5.45
2023-04-22T07:07:52.531Z,5.85
2023-04-22T07:10:19.585Z,5.90
2023-04-22T07:12:46.722Z,5.15
2023-04-22T07:15:13.693Z,5.93
2023-04-22T07:17:40.675Z,5.82
2023-04-22T07:20:08.052Z,5.60
2023-04-22T07:22:34.920Z,6.80
2023-04-22T07:25:01.863Z,6.57
2023-04-22T07:27:28.792Z,6.85
2023-04-22T07:29:55.694Z,6.38
2023-04-22T07:32:22.656Z,6.57
2023-04-22T07:34:49.446Z,7.03
2023-04-22T07:37:16.227Z,6.10
2023-04-22T07:39:43.073Z,7.40
2023-04-22T07:42:09.877Z,7.30
2023-04-22T07:44:38.234Z,7.47
2023-04-22T07:47:08.446Z,6.90
2023-04-22T07:49:35.354Z,8.90
2023-04-22T07:52:02.342Z,8.63
2023-04-22T07:54:29.261Z,8.63
2023-04-22T07:56:58.314Z,8.55
2023-04-22T07:59:25.789Z,9.40
2023-04-22T08:01:52.738Z,9.10
2023-04-22T08:04:22.941Z,8.48
2023-04-22T08:06:50.388Z,8.25
2023-04-22T08:09:17.193Z,8.43
2023-04-22T08:11:44.027Z,8.55
2023-04-22T08:14:10.905Z,8.63
2023-04-22T08:16:39.006Z,6.45
2023-04-22T08:19:06.031Z,6.70
2023-04-22T08:21:33.104Z,6.32
2023-04-22T08:24:00.329Z,5.85
2023-04-22T08:26:27.230Z,5.65
2023-04-22T08:28:54.182Z,5.68
2023-04-22T08:31:21.093Z,5.78
2023-04-22T08:33:48.599Z,4.80
2023-04-22T08:36:15.628Z,5.18
2023-04-22T08:38:44.846Z,5.32
2023-04-22T08:41:11.726Z,5.20
2023-04-22T08:43:38.580Z,4.13
2023-04-22T08:46:06.049Z,3.60
2023-04-22T08:48:33.028Z,3.58
2023-04-22T08:50:59.822Z,3.13
2023-04-22T08:53:26.946Z,2.63
2023-04-22T08:55:53.957Z,3.00
2023-04-22T08:58:20.971Z,2.50
2023-04-22T09:00:47.850Z,2.70
2023-04-22T09:03:15.244Z,2.25
2023-04-22T09:05:42.214Z,2.28
2023-04-22T09:08:09.957Z,2.42
2023-04-22T09:10:38.121Z,2.30
2023-04-22T09:13:06.257Z,2.03
2023-04-22T09:15:33.611Z,2.17
2023-04-22T09:18:01.024Z,2.20
2023-04-22T09:20:28.950Z,2.38
2023-04-22T09:22:56.776Z,2.65
2023-04-22T09:25:25.296Z,2.53
2023-04-22T09:27:56.403Z,2.60
2023-04-22T09:30:31.019Z,2.17
2023-04-22T09:33:02.331Z,2.05
2023-04-22T09:35:40.613Z,2.15
2023-04-22T09:38:08.988Z,2.50
2023-04-22T09:40:36.352Z,1.77
2023-04-22T09:43:04.832Z,2.17
2023-04-22T09:45:39.279Z,2.05
2023-04-22T09:48:14.325Z,2.05
2023-04-22T09:50:45.109Z,2.03
2023-04-22T09:53:15.052Z,1.80
2023-04-22T09:55:46.128Z,2.33
2023-04-22T09:58:14.520Z,2.65
2023-04-22T10:00:47.602Z,2.15
2023-04-22T10:03:15.030Z,2.70
2023-04-22T10:05:42.665Z,2.33
2023-04-22T10:08:10.484Z,2.75
2023-04-22T10:10:37.540Z,2.17
2023-04-22T10:13:04.797Z,2.72
2023-04-22T10:15:42.393Z,2.65
2023-04-22T10:18:12.014Z,2.80
2023-04-22T10:20:40.864Z,2.28
2023-04-22T10:23:14.906Z,2.47
2023-04-22T10:25:41.884Z,2.50
2023-04-22T10:28:11.965Z,2.80
2023-04-22T10:30:39.256Z,2.10
2023-04-22T10:33:21.600Z,2.08
2023-04-22T10:36:08.405Z,2.33
2023-04-22T10:38:39.317Z,2.20
2023-04-22T10:41:06.349Z,2.50
2023-04-22T10:43:49.399Z,2.15
2023-04-22T10:46:35.079Z,2.35
2023-04-22T10:49:20.743Z,2.40
2023-04-22T10:51:51.943Z,2.80
2023-04-22T10:54:31.076Z,2.90
2023-04-22T10:57:20.031Z,2.80
2023-04-22T10:59:50.268Z,2.72
2023-04-22T11:02:17.583Z,2.30
2023-04-22T11:04:44.403Z,1.83
2023-04-22T11:07:20.914Z,2.10
2023-04-22T11:09:53.776Z,1.90
2023-04-22T11:12:36.368Z,2.33
2023-04-22T11:15:17.510Z,1.90
2023-04-22T11:17:46.867Z,2.00
2023-04-22T11:20:17.309Z,2.08
2023-04-22T11:22:46.946Z,1.80
2023-04-22T11:25:14.726Z,2.10
2023-04-22T11:27:43.567Z,1.95
2023-04-22T11:30:21.146Z,2.20
2023-04-22T11:32:52.243Z,2.00
2023-04-22T11:35:26.157Z,1.80
2023-04-22T11:37:55.985Z,1.67
2023-04-22T11:40:49.413Z,1.90
2023-04-22T11:45:45.700Z,1.35
2023-04-22T11:48:13.460Z,1.70
2023-04-22T11:50:41.140Z,2.13
2023-04-22T11:53:21.029Z,1.98
2023-04-22T11:55:51.027Z,2.03
2023-04-22T11:58:25.860Z,2.30
2023-04-22T12:00:53.579Z,2.58
2023-04-22T12:03:28.000Z,2.65
2023-04-22T12:05:59.753Z,2.30
2023-04-22T12:08:32.746Z,2.00
2023-04-22T12:13:33.114Z,1.60
2023-04-22T12:16:01.633Z,1.90
2023-04-22T12:18:39.091Z,1.80
2023-04-22T12:21:08.700Z,1.63
2023-04-22T12:23:48.023Z,1.85
2023-04-22T12:26:15.584Z,2.15
2023-04-22T12:28:42.683Z,1.67
2023-04-22T12:31:09.635Z,1.52
2023-04-22T12:33:36.945Z,1.77
2023-04-22T12:36:04.243Z,1.80
2023-04-22T12:38:31.123Z,1.88
2023-04-22T12:40:58.299Z,2.28
2023-04-22T12:43:25.515Z,2.30
2023-04-22T12:45:52.394Z,1.90
2023-04-22T12:48:19.202Z,1.50
2023-04-22T12:50:46.156Z,1.38
2023-04-22T12:53:13.040Z,1.42
2023-04-22T12:55:41.122Z,1.55
2023-04-22T12:58:08.308Z,1.75
2023-04-22T13:00:35.606Z,1.98
2023-04-22T13:03:02.550Z,2.08
2023-04-22T13:05:29.373Z,2.03
2023-04-22T13:08:06.577Z,2.08
2023-04-22T13:10:34.783Z,2.33
2023-04-22T13:13:16.875Z,2.30
2023-04-22T13:18:12.048Z,1.90
2023-04-22T13:20:39.874Z,2.03
2023-04-22T13:23:08.136Z,1.90
2023-04-22T13:25:35.149Z,1.70
2023-04-22T13:28:02.055Z,2.05
2023-04-22T13:30:28.881Z,1.83
2023-04-22T13:32:58.417Z,1.65
2023-04-22T13:35:25.695Z,1.67
2023-04-22T13:37:52.737Z,1.77
2023-04-22T13:40:22.836Z,1.60
2023-04-22T13:42:49.690Z,1.70
2023-04-22T13:45:16.519Z,1.90
2023-04-22T13:47:43.314Z,1.48
2023-04-22T13:50:10.753Z,1.65
2023-04-22T13:52:37.801Z,1.98
2023-04-22T13:55:04.950Z,2.45
2023-04-22T13:57:32.105Z,2.30
2023-04-22T13:59:59.152Z,2.03
2023-04-22T14:02:26.119Z,2.40
2023-04-22T14:04:53.153Z,2.40
2023-04-22T14:07:20.288Z,2.17
2023-04-22T14:09:47.235Z,1.90
2023-04-22T14:12:14.158Z,2.38
2023-04-22T14:14:41.046Z,2.47
2023-04-22T14:17:08.254Z,2.08
2023-04-22T14:19:37.540Z,2.35
2023-04-22T14:22:04.607Z,2.55
2023-04-22T14:24:31.449Z,2.35
2023-04-22T14:27:05.219Z,2.03
2023-04-22T14:29:32.150Z,2.08
2023-04-22T14:31:59.178Z,2.05
2023-04-22T14:34:27.394Z,2.10
2023-04-22T14:36:54.494Z,1.65
2023-04-22T14:39:21.668Z,1.70
2023-04-22T14:41:48.720Z,1.75
2023-04-22T14:44:15.780Z,2.08
2023-04-22T14:46:42.655Z,1.90
2023-04-22T14:49:09.565Z,2.05
2023-04-22T14:51:39.208Z,2.20
2023-04-22T14:54:06.217Z,2.17
2023-04-22T14:56:33.161Z,2.20
2023-04-22T14:58:59.937Z,2.03
2023-04-22T15:01:26.792Z,2.10
2023-04-22T15:03:53.773Z,2.13
2023-04-22T15:06:20.646Z,1.50
2023-04-22T15:08:47.627Z,2.10
2023-04-22T15:11:15.786Z,2.17
2023-04-22T15:13:42.678Z,2.63
2023-04-22T15:16:09.539Z,1.98
2023-04-22T15:18:36.458Z,1.90
2023-04-22T15:21:05.834Z,2.00
2023-04-22T15:23:32.666Z,1.55
2023-04-22T15:25:59.651Z,1.70
2023-04-22T15:28:26.553Z,1.40
2023-04-22T15:30:53.446Z,1.58
2023-04-22T15:33:20.203Z,1.60
2023-04-22T15:35:49.460Z,1.38
2023-04-22T15:38:20.017Z,1.38
2023-04-22T15:40:47.402Z,1.33
2023-04-22T15:43:14.168Z,1.30
2023-04-22T15:45:41.954Z,1.58
2023-04-22T15:48:08.890Z,1.33
2023-04-22T15:50:38.309Z,1.60
2023-04-22T15:53:06.658Z,1.67
2023-04-22T15:55:33.616Z,1.40
2023-04-22T15:58:00.619Z,1.38
2023-04-22T16:00:28.793Z,1.38
2023-04-22T16:02:55.938Z,1.00
2023-04-22T16:05:24.922Z,1.10
2023-04-22T16:07:52.956Z,1.33
2023-04-22T16:10:20.005Z,1.40
2023-04-22T16:12:47.049Z,1.02
2023-04-22T16:15:13.895Z,1.38
2023-04-22T16:17:41.115Z,0.90
2023-04-22T16:20:08.727Z,0.88
2023-04-22T16:22:35.604Z,1.10
2023-04-22T16:25:02.496Z,1.17
2023-04-22T16:27:29.229Z,0.77
2023-04-22T16:29:58.606Z,1.02
2023-04-22T16:32:25.411Z,0.85
2023-04-22T16:34:52.202Z,0.80
2023-04-22T16:37:19.000Z,0.85
2023-04-22T16:39:46.308Z,0.90
2023-04-22T16:42:13.123Z,1.10
2023-04-22T16:44:39.880Z,1.30
2023-04-22T16:47:06.631Z,0.90
2023-04-22T16:49:33.335Z,0.82
2023-04-22T16:52:00.220Z,0.70
2023-04-22T16:54:27.528Z,0.80
2023-04-22T16:56:54.251Z,1.00
2023-04-22T16:59:22.198Z,1.10
2023-04-22T17:01:49.097Z,0.90
2023-04-22T17:04:15.976Z,0.93
2023-04-22T17:06:43.481Z,1.20
2023-04-22T17:09:10.286Z,0.90
2023-04-22T17:11:37.439Z,1.10
2023-04-22T17:14:04.751Z,1.13
2023-04-22T17:16:32.378Z,0.90
2023-04-22T17:18:59.223Z,0.75
2023-04-22T17:21:27.995Z,1.10
2023-04-22T17:23:55.359Z,1.05
2023-04-22T17:26:22.062Z,1.02
2023-04-22T17:28:48.775Z,1.00
2023-04-22T17:31:15.593Z,0.93
2023-04-22T17:33:42.445Z,0.90
2023-04-22T17:36:09.237Z,1.13
2023-04-22T17:38:36.048Z,1.20
2023-04-22T17:41:02.901Z,1.10
2023-04-22T17:43:29.653Z,0.65
2023-04-22T17:45:56.585Z,0.63
2023-04-22T17:48:23.714Z,0.80
2023-04-22T17:50:50.651Z,0.70
2023-04-22T17:53:17.479Z,0.90
2023-04-22T17:55:44.391Z,0.80
2023-04-22T17:58:11.641Z,0.98
2023-04-22T18:00:39.180Z,0.93
2023-04-22T18:03:06.328Z,1.00
2023-04-22T18:05:33.190Z,1.00
2023-04-22T18:08:02.693Z,0.57
2023-04-22T18:10:30.070Z,1.00
2023-04-22T18:12:56.878Z,0.88
2023-04-22T18:15:23.853Z,0.75
2023-04-22T18:17:51.197Z,0.70
2023-04-22T18:20:20.096Z,0.70
2023-04-22T18:22:48.381Z,0.77
2023-04-22T18:25:15.431Z,0.80
2023-04-22T18:27:44.808Z,0.80
2023-04-22T18:30:14.552Z,0.73
2023-04-22T18:32:41.913Z,0.65
2023-04-22T18:35:09.445Z,0.82
2023-04-22T18:37:36.841Z,0.80
2023-04-22T18:40:05.859Z,0.65
2023-04-22T18:42:32.664Z,1.00
2023-04-22T18:45:01.957Z,0.77
2023-04-22T18:47:30.832Z,0.77
2023-04-22T18:49:58.060Z,0.52
2023-04-22T18:52:25.548Z,1.00
2023-04-22T18:54:52.702Z,0.68
2023-04-22T18:57:19.569Z,0.88
2023-04-22T18:59:47.267Z,1.00
2023-04-22T19:02:14.167Z,1.30
2023-04-22T19:04:41.724Z,1.00
2023-04-22T19:07:08.843Z,1.30
2023-04-22T19:09:36.450Z,1.83
2023-04-22T19:12:03.338Z,2.05
2023-04-22T19:14:30.283Z,1.75
2023-04-22T19:16:57.438Z,1.60
2023-04-22T19:19:26.123Z,1.42
2023-04-22T19:21:53.122Z,1.98
2023-04-22T19:24:20.048Z,2.78
2023-04-22T19:26:47.305Z,2.65
2023-04-22T19:29:16.515Z,3.05
2023-04-22T19:31:46.662Z,4.03
2023-04-22T19:34:13.828Z,3.08
2023-04-22T19:36:40.686Z,3.10
2023-04-22T19:39:08.616Z,3.80
2023-04-22T19:41:38.469Z,2.97
2023-04-22T19:44:05.802Z,2.67
2023-04-22T19:46:33.192Z,3.20
2023-04-22T19:49:00.562Z,2.72
2023-04-22T19:51:27.559Z,2.60
2023-04-22T19:53:54.370Z,2.67
2023-04-22T19:56:21.282Z,2.63
2023-04-22T19:58:48.254Z,2.45
2023-04-22T20:01:15.311Z,2.22
2023-04-22T20:03:43.728Z,2.10
2023-04-22T20:06:12.924Z,2.20
2023-04-22T20:08:42.028Z,2.80
2023-04-22T20:11:11.958Z,2.30
2023-04-22T20:13:42.397Z,2.42
2023-04-22T20:16:09.741Z,2.30
2023-04-22T20:18:37.520Z,2.50
2023-04-22T20:21:04.802Z,3.55
2023-04-22T20:23:31.910Z,3.03
2023-04-22T20:25:59.353Z,2.97
2023-04-22T20:28:45.175Z,3.85
2023-04-22T20:31:18.665Z,4.20
2023-04-22T20:33:46.629Z,3.67
2023-04-22T20:36:15.225Z,3.03
2023-04-22T20:38:43.166Z,3.33
2023-04-22T20:41:13.370Z,3.63
2023-04-22T20:43:41.178Z,4.43
2023-04-22T20:46:08.771Z,4.30
2023-04-22T20:48:36.654Z,3.63
2023-04-22T20:51:03.750Z,3.28
2023-04-22T20:53:31.039Z,3.45
2023-04-22T20:55:58.101Z,3.47
2023-04-22T20:58:25.058Z,3.65
2023-04-22T21:00:51.925Z,3.13
2023-04-22T21:03:18.996Z,3.70
2023-04-22T21:05:46.857Z,3.40
2023-04-22T21:08:27.959Z,4.03
2023-04-22T21:10:56.312Z,3.70
2023-04-22T21:13:23.676Z,4.00
2023-04-22T21:16:04.103Z,4.50
2023-04-22T21:18:33.411Z,4.78
2023-04-22T21:21:03.135Z,4.57
2023-04-22T21:23:30.475Z,4.65
2023-04-22T21:25:58.102Z,4.90
2023-04-22T21:28:25.395Z,4.93
2023-04-22T21:30:52.436Z,5.45
2023-04-22T21:33:19.267Z,4.63
2023-04-22T21:35:47.001Z,5.30
2023-04-22T21:38:16.251Z,5.30
2023-04-22T21:40:43.950Z,5.93
2023-04-22T21:43:10.782Z,5.45
2023-04-22T21:45:37.564Z,5.78
2023-04-22T21:48:04.458Z,6.47
2023-04-22T21:50:31.706Z,6.65
2023-04-22T21:52:58.503Z,4.80
2023-04-22T21:55:26.629Z,5.35
2023-04-22T21:57:55.927Z,4.57
2023-04-22T22:00:25.307Z,4.05
2023-04-22T22:02:53.333Z,4.55
2023-04-22T22:05:20.790Z,4.22
2023-04-22T22:07:47.715Z,5.10
2023-04-22T22:10:16.355Z,5.10
2023-04-22T22:12:43.415Z,4.68
2023-04-22T22:15:11.453Z,4.43
2023-04-22T22:17:40.272Z,4.43
2023-04-22T22:20:11.957Z,4.45
2023-04-22T22:22:42.893Z,4.55
2023-04-22T22:25:12.223Z,3.85
2023-04-22T22:27:49.558Z,4.15
2023-04-22T22:30:17.374Z,4.78
2023-04-22T22:32:44.436Z,4.93
2023-04-22T22:35:11.417Z,4.53
2023-04-22T22:37:38.426Z,3.92
2023-04-22T22:40:05.924Z,3.58
2023-04-22T22:42:32.775Z,3.42
2023-04-22T22:45:00.253Z,2.97
2023-04-22T22:47:28.957Z,2.78
2023-04-22T22:49:56.038Z,3.08
2023-04-22T22:52:23.184Z,2.67
2023-04-22T22:54:50.828Z,2.50
2023-04-22T22:57:18.140Z,2.22
2023-04-22T22:59:46.062Z,2.10
2023-04-22T23:02:14.648Z,2.13
2023-04-22T23:04:42.483Z,1.90
2023-04-22T23:07:10.099Z,1.73
2023-04-22T23:09:37.292Z,1.90
2023-04-22T23:12:05.721Z,1.70
2023-04-22T23:14:33.522Z,1.48
2023-04-22T23:17:02.995Z,1.60
2023-04-22T23:19:29.888Z,1.08
2023-04-22T23:21:56.983Z,1.35
2023-04-22T23:24:23.981Z,1.27
2023-04-22T23:26:51.059Z,1.20
2023-04-22T23:29:18.975Z,1.20
2023-04-22T23:31:46.867Z,1.17
2023-04-22T23:34:13.586Z,1.25
2023-04-22T23:36:40.966Z,0.93
2023-04-22T23:39:08.155Z,1.10
2023-04-22T23:41:35.033Z,1.00
2023-04-22T23:44:02.245Z,0.98
2023-04-22T23:46:29.323Z,0.70
2023-04-22T23:48:57.328Z,0.85
2023-04-22T23:51:24.872Z,1.33
2023-04-22T23:53:51.902Z,0.60
2023-04-22T23:56:22.835Z,0.52
2023-04-22T23:58:51.304Z,0.55
